Time;durP1;ratioP1;P1;durP2;ratioP2;P2;SDS_P1;SDS_P2;PMS_P1;PMS_P2;Temp;Humidity;BMP_temperature;BMP_pressure;BME280_temperature;BME280_humidity;BME280_pressure;Samples;Min_cycle;Max_cycle;Signal;HPM_P1;HPM_P2
2022/05/24 00:01:37;;;;;;;3.38;3.08;;;22.30;61.80;;;;;;4892771;28;88612;-65
2022/05/24 00:04:03;;;;;;;3.05;2.80;;;22.30;61.50;;;;;;4892771;28;88198;-66
2022/05/24 00:06:31;;;;;;;2.72;2.25;;;22.30;61.60;;;;;;4892934;28;87654;-65
2022/05/24 00:08:58;;;;;;;2.90;2.60;;;22.20;61.60;;;;;;4892249;28;88324;-65
2022/05/24 00:11:23;;;;;;;2.75;2.53;;;22.30;61.50;;;;;;4892070;28;89041;-65
2022/05/24 00:13:49;;;;;;;3.70;2.88;;;22.30;61.50;;;;;;4889827;28;92655;-65
2022/05/24 00:16:15;;;;;;;2.83;2.63;;;22.30;61.80;;;;;;4891773;28;87707;-65
2022/05/24 00:18:41;;;;;;;2.63;2.42;;;22.30;61.60;;;;;;4892232;28;87159;-65
2022/05/24 00:21:07;;;;;;;2.60;2.40;;;22.20;61.70;;;;;;4890260;28;89968;-65
2022/05/24 00:23:33;;;;;;;2.83;2.63;;;22.30;61.80;;;;;;4892684;28;88133;-65
2022/05/24 00:26:13;;;;;;;4.30;2.42;;;22.30;61.80;;;;;;4892687;28;87854;-65
2022/05/24 00:28:39;;;;;;;3.22;2.92;;;22.20;61.90;;;;;;4891747;28;86957;-65
2022/05/24 00:31:05;;;;;;;3.10;2.00;;;22.30;61.80;;;;;;4890980;28;88289;-65
2022/05/24 00:33:32;;;;;;;2.97;2.72;;;22.30;61.80;;;;;;4890619;28;88191;-65
2022/05/24 00:35:58;;;;;;;3.05;2.45;;;22.30;61.80;;;;;;4890341;28;89115;-66
2022/05/24 00:38:30;;;;;;;2.80;2.40;;;22.30;61.90;;;;;;4890069;28;87329;-65
2022/05/24 00:41:25;;;;;;;2.88;2.58;;;22.20;61.70;;;;;;4892915;28;91056;-65
2022/05/24 00:46:26;;;;;;;2.35;2.15;;;22.20;61.80;;;;;;4895596;28;88112;-65
2022/05/24 00:49:04;;;;;;;2.80;2.50;;;22.30;61.80;;;;;;4895421;28;87887;-65
2022/05/24 00:51:47;;;;;;;2.35;2.15;;;22.20;61.90;;;;;;4895246;28;87732;-65
2022/05/24 00:54:13;;;;;;;3.03;2.78;;;22.20;61.90;;;;;;4894923;28;87526;-65
2022/05/24 00:57:21;;;;;;;3.05;2.75;;;22.20;62.00;;;;;;4895233;28;87933;-66
2022/05/24 01:00:14;;;;;;;3.17;2.85;;;22.20;62.00;;;;;;4883298;28;87498;-65
2022/05/24 01:02:41;;;;;;;3.78;2.38;;;22.20;61.90;;;;;;4893706;28;89071;-65
2022/05/24 01:05:22;;;;;;;2.75;2.55;;;22.20;61.70;;;;;;4894068;28;88735;-65
2022/05/24 01:07:48;;;;;;;2.63;2.40;;;22.30;61.70;;;;;;4894707;28;88015;-66
2022/05/24 01:10:22;;;;;;;3.47;2.40;;;22.20;61.60;;;;;;4895362;28;87817;-65
2022/05/24 01:13:16;;;;;;;2.53;2.33;;;22.20;61.80;;;;;;4893908;28;88365;-65
2022/05/24 01:15:44;;;;;;;2.55;2.35;;;22.20;61.70;;;;;;4893940;28;87326;-65
2022/05/24 01:18:11;;;;;;;2.70;2.50;;;22.20;61.70;;;;;;4894660;28;87866;-65
2022/05/24 01:20:38;;;;;;;3.10;2.70;;;22.20;61.60;;;;;;4894545;28;87205;-66
2022/05/24 01:23:40;;;;;;;2.63;2.42;;;22.30;61.60;;;;;;4895137;28;88123;-65
2022/05/24 01:26:21;;;;;;;3.10;2.58;;;22.20;61.70;;;;;;4893123;28;89840;-65
2022/05/24 01:28:50;;;;;;;2.63;2.42;;;22.20;61.50;;;;;;4889661;28;88963;-65
2022/05/24 01:31:17;;;;;;;;;;;22.20;61.60;;;;;;4894320;28;87077;-66
2022/05/24 01:36:31;;;;;;;3.22;2.63;;;22.20;61.40;;;;;;4892383;28;87846;-65
2022/05/24 01:39:03;;;;;;;2.67;2.47;;;22.20;61.40;;;;;;4892094;28;87784;-65
2022/05/24 01:41:41;;;;;;;2.55;2.35;;;22.20;61.50;;;;;;4891845;28;88110;-65
2022/05/24 01:44:08;;;;;;;2.95;2.20;;;22.20;61.60;;;;;;4893400;28;88038;-65
2022/05/24 01:46:40;;;;;;;2.38;2.17;;;22.20;61.40;;;;;;4893334;28;86352;-66
2022/05/24 01:49:33;;;;;;;2.90;2.67;;;22.20;61.40;;;;;;4893630;28;88108;-65
2022/05/24 01:52:30;;;;;;;2.50;2.30;;;22.20;61.50;;;;;;4888804;28;88971;-66
2022/05/24 01:55:05;;;;;;;2.45;2.25;;;22.20;61.60;;;;;;4892701;28;88560;-65
2022/05/24 01:57:42;;;;;;;2.28;2.08;;;22.20;61.60;;;;;;4892925;28;88214;-66
2022/05/24 02:00:12;;;;;;;2.28;2.08;;;22.20;62.40;;;;;;4892759;28;87136;-65
2022/05/24 02:02:38;;;;;;;2.53;2.33;;;22.20;61.50;;;;;;4894123;28;87914;-65
2022/05/24 02:05:05;;;;;;;3.03;2.65;;;22.10;61.70;;;;;;4891473;28;91616;-66
2022/05/24 02:07:32;;;;;;;2.83;2.53;;;22.20;61.60;;;;;;4893715;28;88002;-66
2022/05/24 02:09:58;;;;;;;2.47;2.28;;;22.10;61.60;;;;;;4894600;28;87713;-65
2022/05/24 02:12:44;;;;;;;3.35;3.05;;;22.10;61.60;;;;;;4894486;28;86803;-66
2022/05/24 02:15:21;;;;;;;3.50;2.80;;;22.10;61.60;;;;;;4893086;28;87702;-65
2022/05/24 02:17:51;;;;;;;2.92;2.58;;;22.10;61.60;;;;;;4891491;28;87970;-65
2022/05/24 02:20:23;;;;;;;2.88;2.30;;;22.20;61.60;;;;;;4892559;28;88556;-66
2022/05/24 02:22:49;;;;;;;2.78;2.58;;;22.10;61.50;;;;;;4907352;28;88022;-65
2022/05/24 02:25:18;;;;;;;2.70;2.50;;;22.20;61.50;;;;;;4892927;28;88117;-65
2022/05/24 02:27:45;;;;;;;3.03;2.35;;;22.10;61.40;;;;;;4908339;28;88962;-65
2022/05/24 02:30:23;;;;;;;3.53;2.40;;;22.10;61.60;;;;;;4894479;28;87830;-66
2022/05/24 02:32:49;;;;;;;2.60;2.40;;;22.10;61.50;;;;;;4891402;28;87997;-65
2022/05/24 02:35:16;;;;;;;3.05;2.70;;;22.10;61.40;;;;;;4893783;28;88039;-65
2022/05/24 02:37:42;;;;;;;2.95;2.20;;;22.10;61.50;;;;;;4893745;28;87847;-65
2022/05/24 02:42:53;;;;;;;2.60;2.40;;;22.10;61.40;;;;;;4893597;28;87485;-66
2022/05/24 02:45:20;;;;;;;2.33;2.13;;;22.10;61.40;;;;;;4891818;28;88801;-65
2022/05/24 02:47:45;;;;;;;2.58;2.00;;;22.10;61.40;;;;;;4890524;28;90647;-65
2022/05/24 02:50:12;;;;;;;2.50;2.30;;;22.10;61.60;;;;;;4893022;28;87945;-66
2022/05/24 02:52:39;;;;;;;2.53;2.33;;;22.10;61.50;;;;;;4893004;28;87838;-66
2022/05/24 02:55:11;;;;;;;2.20;2.05;;;22.10;61.30;;;;;;4891770;28;87734;-65
2022/05/24 02:57:37;;;;;;;2.70;2.50;;;22.10;61.40;;;;;;4891219;28;91773;-66
2022/05/24 03:00:05;;;;;;;2.35;2.15;;;22.10;61.40;;;;;;4893513;28;87523;-65
2022/05/24 03:02:31;;;;;;;2.88;2.38;;;22.10;61.50;;;;;;4891162;28;88247;-66
2022/05/24 03:04:59;;;;;;;4.25;2.20;;;22.10;61.40;;;;;;4892356;28;87790;-66
2022/05/24 03:10:09;;;;;;;2.55;2.35;;;22.10;61.40;;;;;;4892841;28;87961;-65
2022/05/24 03:15:19;;;;;;;2.20;2.00;;;22.10;61.40;;;;;;4891857;28;88034;-66
2022/05/24 03:17:44;;;;;;;3.15;2.53;;;22.10;61.30;;;;;;4891634;28;89103;-65
2022/05/24 03:20:10;;;;;;;2.55;2.33;;;22.10;61.30;;;;;;4892978;28;86900;-65
2022/05/24 03:22:36;;;;;;;2.53;2.33;;;22.10;61.20;;;;;;4892697;28;87667;-66
2022/05/24 03:25:02;;;;;;;2.30;2.10;;;22.10;61.30;;;;;;4891903;28;87304;-64
2022/05/24 03:27:27;;;;;;;2.80;2.58;;;22.10;61.00;;;;;;4892314;28;87715;-64
2022/05/24 03:29:53;;;;;;;2.47;2.28;;;22.10;61.10;;;;;;4893568;28;88020;-64
2022/05/24 03:32:19;;;;;;;2.58;2.38;;;22.10;61.10;;;;;;4890882;28;90269;-65
2022/05/24 03:34:45;;;;;;;2.67;2.20;;;22.10;61.00;;;;;;4892217;28;89066;-64
2022/05/24 03:37:11;;;;;;;2.45;2.10;;;22.10;61.00;;;;;;4892304;28;89001;-64
2022/05/24 03:39:36;;;;;;;2.40;2.20;;;22.10;61.00;;;;;;4892630;28;87638;-64
2022/05/24 03:42:04;;;;;;;2.50;2.30;;;22.10;61.20;;;;;;4892810;28;88071;-64
2022/05/24 03:44:30;;;;;;;2.25;2.05;;;22.10;61.10;;;;;;4892665;28;88043;-64
2022/05/24 03:46:55;;;;;;;2.42;2.22;;;22.10;61.20;;;;;;4891031;28;91125;-64
2022/05/24 03:49:22;;;;;;;2.40;2.20;;;22.00;61.00;;;;;;4889806;28;87030;-64
2022/05/24 03:51:48;;;;;;;2.60;2.40;;;22.10;61.00;;;;;;4891488;28;86963;-64
2022/05/24 03:54:14;;;;;;;2.15;2.03;;;22.10;61.10;;;;;;4891398;28;87892;-64
2022/05/24 03:57:59;;;;;;;2.55;2.22;;;22.10;60.90;;;;;;4891670;28;88260;-65
2022/05/24 03:59:30;;;;;;;2.50;2.30;;;22.10;61.00;;;;;;4891807;28;88556;-64
2022/05/24 04:01:56;;;;;;;4.53;2.47;;;22.10;61.00;;;;;;4892354;28;87134;-65
2022/05/24 04:04:22;;;;;;;2.67;2.40;;;22.10;61.20;;;;;;4891268;28;91097;-64
2022/05/24 04:06:47;;;;;;;2.40;2.20;;;22.10;60.90;;;;;;4891580;28;87861;-64
2022/05/24 04:09:13;;;;;;;3.00;2.20;;;22.10;61.00;;;;;;4891051;28;88122;-64
2022/05/24 04:11:39;;;;;;;2.55;2.33;;;22.10;60.90;;;;;;4892007;28;87555;-64
2022/05/24 04:14:05;;;;;;;2.45;2.25;;;22.10;60.90;;;;;;4894064;28;88006;-64
2022/05/24 04:16:31;;;;;;;1.90;1.80;;;22.00;60.90;;;;;;4895604;28;86917;-64
2022/05/24 04:18:57;;;;;;;2.42;2.22;;;22.10;60.80;;;;;;4893663;28;87654;-64
2022/05/24 04:21:23;;;;;;;2.30;2.10;;;22.00;60.70;;;;;;4895426;28;88039;-65
2022/05/24 04:23:48;;;;;;;1.95;1.85;;;22.10;60.70;;;;;;4894156;28;89598;-64
2022/05/24 04:26:14;;;;;;;1.92;1.75;;;22.10;60.80;;;;;;4894426;28;88277;-65
2022/05/24 04:28:40;;;;;;;2.40;2.20;;;22.10;60.60;;;;;;4895665;28;87770;-64
2022/05/24 04:31:05;;;;;;;2.50;2.30;;;22.10;60.50;;;;;;4895215;28;87826;-64
2022/05/24 04:33:31;;;;;;;2.67;2.10;;;22.00;60.60;;;;;;4894281;28;87646;-64
2022/05/24 04:35:57;;;;;;;2.42;2.22;;;22.10;60.90;;;;;;4894544;28;90338;-64
2022/05/24 04:38:24;;;;;;;2.58;2.30;;;22.10;60.80;;;;;;4894347;28;87021;-64
2022/05/24 04:43:34;;;;;;;2.40;2.20;;;22.10;60.70;;;;;;4895845;28;87990;-64
2022/05/24 04:45:59;;;;;;;2.78;2.15;;;22.00;60.80;;;;;;4895336;28;87928;-65
2022/05/24 04:48:26;;;;;;;2.33;2.13;;;22.10;60.80;;;;;;4895170;28;88115;-64
2022/05/24 04:50:57;;;;;;;2.08;1.90;;;22.00;60.80;;;;;;4895462;28;87617;-64
2022/05/24 04:53:24;;;;;;;2.53;2.30;;;22.00;60.80;;;;;;4895878;28;87765;-65
2022/05/24 04:55:50;;;;;;;2.67;2.45;;;22.00;60.80;;;;;;4930049;22;90725;-65
2022/05/24 04:58:17;;;;;;;2.28;2.08;;;22.00;60.90;;;;;;4894304;28;87930;-64
2022/05/24 05:00:43;;;;;;;2.95;2.40;;;22.00;60.80;;;;;;4895117;28;87511;-65
2022/05/24 05:03:10;;;;;;;2.42;2.10;;;22.00;60.80;;;;;;4893532;28;88170;-65
2022/05/24 05:05:36;;;;;;;2.50;2.30;;;22.00;60.60;;;;;;4894485;28;87068;-64
2022/05/24 05:08:04;;;;;;;2.85;2.00;;;22.00;60.50;;;;;;4894755;28;87097;-65
2022/05/24 05:10:30;;;;;;;2.25;2.00;;;22.00;60.70;;;;;;4894263;28;87366;-65
2022/05/24 05:12:59;;;;;;;2.25;2.08;;;22.00;60.80;;;;;;4894334;28;88984;-65
2022/05/24 05:15:24;;;;;;;2.50;2.30;;;22.00;60.70;;;;;;4895101;28;89420;-65
2022/05/24 05:17:51;;;;;;;2.88;1.85;;;22.00;60.70;;;;;;4893702;28;87886;-65
2022/05/24 05:20:17;;;;;;;2.47;2.20;;;22.00;60.60;;;;;;4894584;28;87294;-65
2022/05/24 05:22:42;;;;;;;2.20;2.00;;;22.00;60.60;;;;;;4894487;28;87670;-65
2022/05/24 05:25:08;;;;;;;2.17;1.98;;;22.00;60.70;;;;;;4893912;28;87824;-65
2022/05/24 05:27:34;;;;;;;2.47;2.25;;;22.00;60.70;;;;;;4894509;28;87469;-63
2022/05/24 05:32:45;;;;;;;1.90;1.80;;;22.00;60.50;;;;;;4894655;28;87244;-64
2022/05/24 05:35:11;;;;;;;3.67;2.00;;;22.00;60.40;;;;;;4893446;28;86867;-63
2022/05/24 05:37:36;;;;;;;2.85;2.38;;;22.00;60.20;;;;;;4894004;28;88726;-64
2022/05/24 05:40:05;;;;;;;2.20;2.00;;;22.00;60.60;;;;;;4894723;28;87181;-63
2022/05/24 05:42:31;;;;;;;2.42;2.03;;;22.00;60.40;;;;;;4894399;28;90075;-63
2022/05/24 05:44:57;;;;;;;2.55;2.30;;;22.00;60.40;;;;;;4894405;28;87817;-64
2022/05/24 05:47:22;;;;;;;3.38;1.88;;;22.00;60.50;;;;;;4894796;28;87865;-64
2022/05/24 05:49:48;;;;;;;3.05;1.95;;;22.00;60.50;;;;;;4894934;28;88027;-63
2022/05/24 05:52:15;;;;;;;2.65;2.03;;;22.00;60.00;;;;;;4894592;28;88106;-64
2022/05/24 05:54:40;;;;;;;5.95;1.90;;;22.10;59.90;;;;;;4893844;28;88698;-63
2022/05/24 05:57:07;;;;;;;4.28;2.17;;;22.00;59.70;;;;;;4893642;28;87842;-63
2022/05/24 05:59:33;;;;;;;5.15;2.35;;;22.10;59.90;;;;;;4894630;28;87248;-63
2022/05/24 06:01:58;;;;;;;4.43;2.38;;;22.10;60.30;;;;;;4893860;28;89266;-63
2022/05/24 06:04:25;;;;;;;6.38;2.25;;;22.10;60.30;;;;;;4894834;28;87951;-63
2022/05/24 06:06:52;;;;;;;6.15;2.40;;;22.10;59.70;;;;;;4894622;28;87250;-63
2022/05/24 06:09:18;;;;;;;9.85;3.00;;;22.10;57.60;;;;;;4894649;28;87699;-63
2022/05/24 06:11:44;;;;;;;3.90;1.92;;;22.00;55.50;;;;;;4894942;28;87647;-63
2022/05/24 06:14:10;;;;;;;6.45;2.38;;;22.10;54.80;;;;;;4892177;28;90504;-63
2022/05/24 06:16:36;;;;;;;8.32;2.75;;;22.00;54.50;;;;;;4894018;28;87523;-63
2022/05/24 06:19:04;;;;;;;6.55;2.15;;;22.00;54.50;;;;;;4892763;28;87296;-63
2022/05/24 06:21:33;;;;;;;6.32;2.40;;;22.00;54.10;;;;;;4894170;28;87563;-63
2022/05/24 06:24:00;;;;;;;8.50;2.60;;;22.00;53.60;;;;;;4886345;28;88587;-63
2022/05/24 06:26:26;;;;;;;6.45;2.72;;;22.00;54.60;;;;;;4892487;28;89420;-63
2022/05/24 06:28:53;;;;;;;5.95;2.15;;;21.90;53.10;;;;;;4907906;28;88227;-64
2022/05/24 06:31:18;;;;;;;5.85;2.33;;;21.90;52.70;;;;;;4892312;28;87620;-64
2022/05/24 06:33:44;;;;;;;5.90;2.15;;;21.90;52.60;;;;;;4891486;28;88622;-63
2022/05/24 06:36:10;;;;;;;5.90;1.95;;;21.90;52.70;;;;;;4891230;28;87884;-64
2022/05/24 06:38:37;;;;;;;6.35;2.20;;;21.90;52.90;;;;;;4891593;28;87757;-63
2022/05/24 06:41:04;;;;;;;9.32;2.05;;;21.80;52.40;;;;;;4874180;28;87617;-62
2022/05/24 06:43:30;;;;;;;5.88;2.05;;;21.90;53.10;;;;;;4893379;28;89378;-62
2022/05/24 06:45:56;;;;;;;8.63;2.35;;;21.90;53.50;;;;;;4893023;28;88191;-62
2022/05/24 06:48:21;;;;;;;5.35;2.05;;;22.00;53.20;;;;;;4892983;28;87584;-62
2022/05/24 06:50:47;;;;;;;11.63;2.67;;;21.90;52.50;;;;;;4892709;28;89070;-62
2022/05/24 06:53:13;;;;;;;11.23;2.15;;;21.90;53.80;;;;;;4893104;28;87556;-62
2022/05/24 06:55:39;;;;;;;8.60;2.05;;;21.90;53.70;;;;;;4892294;28;86884;-62
2022/05/24 06:58:06;;;;;;;7.38;1.80;;;22.00;54.60;;;;;;4892771;28;87652;-62
2022/05/24 07:03:16;;;;;;;9.45;2.30;;;22.00;55.00;;;;;;4889087;28;87563;-62
2022/05/24 07:05:44;;;;;;;8.23;2.67;;;22.00;54.70;;;;;;4891292;28;87662;-63
2022/05/24 07:08:10;;;;;;;7.95;2.00;;;22.00;55.20;;;;;;4891465;28;88111;-62
2022/05/24 07:10:37;;;;;;;10.35;1.95;;;22.10;54.90;;;;;;4891065;28;88040;-62
2022/05/24 07:13:12;;;;;;;83.13;17.65;;;22.00;53.70;;;;;;4891606;28;88061;-62
2022/05/24 07:15:38;;;;;;;77.30;15.80;;;22.00;53.60;;;;;;4891279;28;89146;-62
2022/05/24 07:18:04;;;;;;;41.60;8.25;;;22.00;53.40;;;;;;4891677;28;88468;-62
2022/05/24 07:20:33;;;;;;;26.95;5.97;;;22.00;52.90;;;;;;4891918;28;88042;-62
2022/05/24 07:23:10;;;;;;;28.53;4.70;;;22.00;52.40;;;;;;4888294;28;88994;-62
2022/05/24 07:25:37;;;;;;;24.95;4.13;;;22.00;52.10;;;;;;4892240;28;88055;-62
2022/05/24 07:28:03;;;;;;;15.45;4.43;;;22.00;52.50;;;;;;4906094;28;89797;-62
2022/05/24 07:30:30;;;;;;;18.85;4.72;;;22.00;52.60;;;;;;4891554;28;88626;-62
2022/05/24 07:32:56;;;;;;;20.00;3.75;;;22.00;53.00;;;;;;4890484;28;87384;-62
2022/05/24 07:35:21;;;;;;;22.85;4.93;;;22.10;52.50;;;;;;4888701;28;87384;-63
2022/05/24 07:37:47;;;;;;;13.25;3.22;;;22.00;54.20;;;;;;4887895;28;88121;-63
2022/05/24 07:45:50;;;;;;;10.90;3.10;;;22.00;53.00;;;;;;4884560;28;87753;-63
2022/05/24 07:48:18;;;;;;;9.90;3.03;;;22.00;52.00;;;;;;4907890;28;88898;-63
2022/05/24 07:50:44;;;;;;;12.15;3.97;;;22.00;52.30;;;;;;4893126;28;91622;-63
2022/05/24 07:53:10;;;;;;;13.75;4.43;;;22.00;53.90;;;;;;4895759;28;87881;-63
2022/05/24 07:55:36;;;;;;;10.00;3.70;;;22.10;54.00;;;;;;4895481;28;87230;-63
2022/05/24 07:58:03;;;;;;;10.57;2.75;;;22.00;53.90;;;;;;4895310;28;86998;-63
2022/05/24 08:00:29;;;;;;;13.98;3.55;;;22.10;53.70;;;;;;4895989;28;88132;-62
2022/05/24 08:02:55;;;;;;;10.27;3.58;;;22.10;53.60;;;;;;4896102;28;87766;-63
2022/05/24 08:05:24;;;;;;;9.57;3.10;;;22.10;53.80;;;;;;4895181;28;88902;-63
2022/05/24 08:07:50;;;;;;;11.35;3.10;;;22.10;53.90;;;;;;4910214;28;89663;-63
2022/05/24 08:10:17;;;;;;;6.78;2.78;;;22.10;53.70;;;;;;4895661;28;88273;-63
2022/05/24 08:12:43;;;;;;;11.68;3.47;;;22.10;53.80;;;;;;4895370;28;87598;-64
2022/05/24 08:15:10;;;;;;;11.07;3.70;;;22.10;53.90;;;;;;4895567;28;88167;-63
2022/05/24 08:17:36;;;;;;;8.32;2.85;;;22.10;53.80;;;;;;4895694;28;87868;-63
2022/05/24 08:20:04;;;;;;;10.27;2.80;;;22.10;53.90;;;;;;4895519;28;88814;-63
2022/05/24 08:22:30;;;;;;;9.95;2.97;;;22.10;54.00;;;;;;4896292;28;87959;-63
2022/05/24 08:24:55;;;;;;;10.57;3.25;;;22.10;54.00;;;;;;4896867;28;86931;-63
2022/05/24 08:27:23;;;;;;;10.98;3.10;;;22.10;54.10;;;;;;4896037;28;87816;-63
2022/05/24 08:29:49;;;;;;;10.88;3.85;;;22.10;54.10;;;;;;4894838;28;89094;-63
2022/05/24 08:32:14;;;;;;;10.80;3.17;;;22.10;54.20;;;;;;4895463;28;88301;-63
2022/05/24 08:34:40;;;;;;;10.50;3.10;;;22.10;54.20;;;;;;4895428;28;87327;-63
2022/05/24 08:37:06;;;;;;;8.07;2.80;;;22.10;54.30;;;;;;4894166;28;88498;-63
2022/05/24 08:39:32;;;;;;;12.57;3.55;;;22.10;54.50;;;;;;4895558;28;87888;-63
2022/05/24 08:42:05;;;;;;;11.85;3.58;;;22.10;54.50;;;;;;4895543;28;87684;-63
2022/05/24 08:50:32;;;;;;;10.65;3.78;;;22.10;54.70;;;;;;4904658;28;88189;-63
2022/05/24 08:53:05;;;;;;;13.38;3.13;;;22.10;54.90;;;;;;4887715;28;90882;-64
2022/05/24 08:55:32;;;;;;;19.67;4.43;;;22.10;54.70;;;;;;4893069;28;87911;-67
2022/05/24 08:57:59;;;;;;;14.50;3.28;;;22.10;55.10;;;;;;4894035;28;87443;-63
2022/05/24 09:00:34;;;;;;;19.73;3.63;;;22.20;53.80;;;;;;4893456;28;88303;-63
2022/05/24 09:03:04;;;;;;;16.75;3.65;;;22.10;54.00;;;;;;4894239;28;88014;-63
2022/05/24 09:05:35;;;;;;;6.38;2.28;;;22.20;54.30;;;;;;4894431;28;87421;-62
2022/05/24 09:08:29;;;;;;;10.75;2.38;;;22.10;51.90;;;;;;4895005;28;88403;-63
2022/05/24 09:11:07;;;;;;;8.40;2.25;;;22.10;53.20;;;;;;4894900;28;88187;-63
2022/05/24 09:14:03;;;;;;;10.27;2.28;;;22.00;50.80;;;;;;4893489;28;87746;-63
2022/05/24 09:17:15;;;;;;;9.32;2.08;;;22.00;51.20;;;;;;4893834;28;87784;-63
2022/05/24 09:19:42;;;;;;;6.82;1.65;;;22.00;52.30;;;;;;4888415;28;86933;-63
2022/05/24 09:22:10;;;;;;;7.82;2.20;;;22.00;52.20;;;;;;4894284;28;90537;-64
2022/05/24 09:24:48;;;;;;;7.95;2.10;;;22.00;53.50;;;;;;4894961;28;88261;-63
2022/05/24 09:27:19;;;;;;;8.18;2.10;;;22.00;53.10;;;;;;4895016;28;87664;-63
2022/05/24 09:29:55;;;;;;;11.45;2.65;;;22.00;52.50;;;;;;4894222;28;87990;-63
2022/05/24 09:32:28;;;;;;;12.27;1.85;;;22.00;52.40;;;;;;4891524;28;87583;-63
2022/05/24 09:35:10;;;;;;;7.32;1.77;;;22.00;52.60;;;;;;4894486;28;88720;-63
2022/05/24 09:37:38;;;;;;;10.63;1.70;;;21.90;52.90;;;;;;4894578;28;87005;-63
2022/05/24 09:40:20;;;;;;;7.97;1.70;;;22.00;53.40;;;;;;4895168;28;86895;-62
2022/05/24 09:42:46;;;;;;;6.97;1.80;;;21.90;53.80;;;;;;4894540;28;88245;-63
2022/05/24 09:45:18;;;;;;;5.93;1.77;;;22.00;54.40;;;;;;4894894;28;87887;-63
2022/05/24 09:47:44;;;;;;;6.00;1.70;;;22.00;54.50;;;;;;4893790;28;89214;-62
2022/05/24 09:50:35;;;;;;;6.55;1.55;;;22.00;54.60;;;;;;4894560;28;86920;-63
2022/05/24 09:53:10;;;;;;;9.07;2.55;;;22.00;54.70;;;;;;4894491;28;88149;-63
2022/05/24 09:56:01;;;;;;;7.10;1.77;;;22.00;55.00;;;;;;4894259;28;88269;-63
2022/05/24 09:58:32;;;;;;;4.45;1.60;;;22.10;55.30;;;;;;4891912;28;87939;-63
2022/05/24 10:01:08;;;;;;;6.35;1.77;;;22.10;55.40;;;;;;4893002;28;87471;-63
2022/05/24 10:03:38;;;;;;;8.73;1.98;;;22.10;55.50;;;;;;4893329;28;89025;-63
2022/05/24 10:06:23;;;;;;;8.07;1.52;;;22.10;55.70;;;;;;4894555;28;87326;-63
2022/05/24 10:09:00;;;;;;;4.25;1.60;;;22.10;55.60;;;;;;4893534;28;87720;-63
2022/05/24 10:11:28;;;;;;;8.38;1.70;;;22.10;56.00;;;;;;4892563;28;87944;-63
2022/05/24 10:14:40;;;;;;;6.93;2.03;;;22.10;56.30;;;;;;4891131;28;89959;-63
2022/05/24 10:17:24;;;;;;;6.38;2.15;;;22.10;56.20;;;;;;4891826;28;89601;-63
2022/05/24 10:20:20;;;;;;;6.35;2.22;;;22.10;56.20;;;;;;4894200;28;87350;-63
2022/05/24 10:23:06;;;;;;;8.05;2.42;;;22.10;56.60;;;;;;4893964;28;87937;-63
2022/05/24 10:25:50;;;;;;;8.18;2.15;;;22.10;56.70;;;;;;4892540;28;88161;-63
2022/05/24 10:28:35;;;;;;;7.68;1.92;;;22.20;56.40;;;;;;4893021;28;87475;-63
2022/05/24 10:31:34;;;;;;;11.93;2.90;;;22.10;56.40;;;;;;4892285;28;87425;-63
2022/05/24 10:40:10;;;;;;;10.02;2.15;;;22.20;56.50;;;;;;4893783;28;88142;-62
2022/05/24 10:43:00;;;;;;;7.97;2.40;;;22.20;56.40;;;;;;4893472;28;88727;-63
2022/05/24 10:45:52;;;;;;;8.48;2.03;;;22.10;56.80;;;;;;4891433;28;88135;-61
2022/05/24 10:48:36;;;;;;;8.45;2.17;;;22.10;56.40;;;;;;4892304;28;88201;-62
2022/05/24 10:51:06;;;;;;;7.45;2.35;;;22.20;56.40;;;;;;4893244;28;87878;-62
2022/05/24 10:53:41;;;;;;;7.60;2.28;;;22.20;55.90;;;;;;4893564;28;87588;-62
2022/05/24 10:56:20;;;;;;;5.82;2.22;;;22.10;55.10;;;;;;4892439;28;88133;-62
2022/05/24 10:58:47;;;;;;;10.18;2.22;;;22.10;54.80;;;;;;4892692;28;88001;-62
2022/05/24 11:01:32;;;;;;;6.63;1.90;;;22.10;54.30;;;;;;4889993;28;88627;-64
2022/05/24 11:04:13;;;;;;;4.15;2.05;;;22.10;54.00;;;;;;4905645;28;87497;-64
2022/05/24 11:06:54;;;;;;;4.88;1.70;;;22.10;54.20;;;;;;4890608;28;88225;-64
2022/05/24 11:09:23;;;;;;;4.80;1.38;;;22.10;54.30;;;;;;4890508;28;89351;-64
2022/05/24 11:11:59;;;;;;;5.22;1.38;;;22.10;53.30;;;;;;4891234;28;91507;-64
2022/05/24 11:14:47;;;;;;;4.97;1.70;;;22.10;52.20;;;;;;4890943;28;87128;-64
2022/05/24 11:17:13;;;;;;;4.60;1.40;;;22.10;52.60;;;;;;4889802;28;90472;-64
2022/05/24 11:19:45;;;;;;;2.35;1.10;;;22.10;51.50;;;;;;4888199;28;88111;-63
2022/05/24 11:22:33;;;;;;;2.92;1.00;;;22.10;51.40;;;;;;4889264;28;87708;-64
2022/05/24 11:25:15;;;;;;;3.60;1.00;;;22.10;50.00;;;;;;4891064;28;88027;-64
2022/05/24 11:27:44;;;;;;;3.78;1.15;;;22.10;49.70;;;;;;4891088;28;87203;-64
2022/05/24 11:30:25;;;;;;;6.50;1.10;;;22.10;49.40;;;;;;4891118;28;87563;-64
2022/05/24 11:33:13;;;;;;;2.95;1.10;;;22.10;50.20;;;;;;4891207;28;87635;-64
2022/05/24 11:35:50;;;;;;;2.67;0.93;;;22.10;50.60;;;;;;4890471;28;89433;-64
2022/05/24 11:38:22;;;;;;;2.38;1.00;;;22.10;50.30;;;;;;4889768;28;88526;-64
2022/05/24 11:40:54;;;;;;;3.70;1.10;;;22.10;50.10;;;;;;4890370;28;87583;-64
2022/05/24 11:43:44;;;;;;;2.58;0.90;;;22.10;50.20;;;;;;4891002;28;87852;-63
2022/05/24 11:46:37;;;;;;;3.58;1.00;;;22.10;50.50;;;;;;4889814;28;87667;-64
2022/05/24 11:49:19;;;;;;;7.47;1.10;;;22.10;50.10;;;;;;4886854;28;88289;-63
2022/05/24 11:51:47;;;;;;;5.55;1.35;;;22.10;50.20;;;;;;4892926;28;88317;-64
2022/05/24 11:54:19;;;;;;;4.32;1.10;;;22.10;50.50;;;;;;4892752;28;87162;-63
2022/05/24 11:57:14;;;;;;;5.25;1.20;;;22.10;51.50;;;;;;4891086;28;87764;-63
2022/05/24 11:59:40;;;;;;;17.60;1.40;;;22.10;51.30;;;;;;4889827;28;87445;-62
2022/05/24 12:02:31;;;;;;;6.72;1.65;;;22.10;51.20;;;;;;4888524;28;91097;-62
2022/05/24 12:07:56;;;;;;;6.30;1.37;;;22.20;51.30;;;;;;4892691;28;87721;-62
2022/05/24 12:10:22;;;;;;;4.97;0.95;;;22.10;51.40;;;;;;4907014;28;89830;-63
2022/05/24 12:13:03;;;;;;;3.95;1.55;;;22.10;51.50;;;;;;4892580;28;90173;-63
2022/05/24 12:15:34;;;;;;;4.28;1.10;;;22.10;51.60;;;;;;4878706;28;89044;-63
2022/05/24 12:18:00;;;;;;;5.47;0.80;;;22.10;51.00;;;;;;4891070;28;87279;-63
2022/05/24 12:20:28;;;;;;;3.33;0.90;;;22.10;50.90;;;;;;4891371;28;86843;-63
2022/05/24 12:23:06;;;;;;;1.48;0.75;;;22.10;51.00;;;;;;4890308;28;88636;-63
2022/05/24 12:25:52;;;;;;;5.57;0.85;;;22.10;50.80;;;;;;4890758;28;87016;-63
2022/05/24 12:28:24;;;;;;;4.95;1.20;;;22.10;49.80;;;;;;4886815;28;88387;-63
2022/05/24 12:30:51;;;;;;;7.22;1.35;;;22.00;50.90;;;;;;4887219;28;88464;-63
2022/05/24 12:33:31;;;;;;;7.90;1.27;;;22.00;52.50;;;;;;4891231;28;88045;-64
2022/05/24 12:36:05;;;;;;;7.88;1.17;;;22.00;53.80;;;;;;4895171;28;87812;-63
2022/05/24 12:38:33;;;;;;;7.47;2.03;;;22.00;54.80;;;;;;4893526;28;87620;-63
2022/05/24 12:41:17;;;;;;;4.20;1.23;;;22.00;55.00;;;;;;4894798;28;87831;-63
2022/05/24 12:43:52;;;;;;;3.78;1.27;;;21.90;55.20;;;;;;4894797;28;88368;-64
2022/05/24 12:46:18;;;;;;;6.93;1.70;;;21.90;55.10;;;;;;4894055;28;87349;-64
2022/05/24 12:48:43;;;;;;;4.03;1.27;;;22.00;55.50;;;;;;4893832;28;87001;-64
2022/05/24 12:51:11;;;;;;;3.67;1.20;;;21.90;55.90;;;;;;4893801;28;87992;-63
2022/05/24 12:53:38;;;;;;;4.75;1.40;;;21.80;56.00;;;;;;4893510;28;88623;-64
2022/05/24 12:56:15;;;;;;;2.10;0.95;;;21.80;56.40;;;;;;4894668;28;88331;-64
2022/05/24 12:58:43;;;;;;;3.53;1.02;;;21.80;56.50;;;;;;4894048;28;87606;-63
2022/05/24 13:01:24;;;;;;;2.60;1.10;;;21.80;56.30;;;;;;4893547;28;87922;-64
2022/05/24 13:03:53;;;;;;;4.03;0.80;;;21.80;56.40;;;;;;4895045;28;88512;-64
2022/05/24 13:06:24;;;;;;;3.60;0.83;;;21.80;56.30;;;;;;4895113;28;88044;-63
2022/05/24 13:09:08;;;;;;;3.00;0.85;;;21.80;56.60;;;;;;4909314;28;87996;-64
2022/05/24 13:11:35;;;;;;;2.45;0.70;;;21.80;56.70;;;;;;4894249;28;87016;-63
2022/05/24 13:14:02;;;;;;;4.68;1.02;;;21.80;56.70;;;;;;4894857;28;87895;-63
2022/05/24 13:16:28;;;;;;;3.72;1.20;;;21.90;56.60;;;;;;4894615;28;87886;-63
2022/05/24 13:18:55;;;;;;;2.58;1.08;;;21.80;56.40;;;;;;4894317;28;88420;-63
2022/05/24 13:21:24;;;;;;;1.80;0.80;;;21.80;56.20;;;;;;4894437;28;87852;-63
2022/05/24 13:24:15;;;;;;;1.27;0.60;;;21.80;56.10;;;;;;4893235;28;88161;-63
2022/05/24 13:27:00;;;;;;;1.75;0.90;;;21.80;56.20;;;;;;4894210;28;87704;-64
2022/05/24 13:29:29;;;;;;;1.50;0.90;;;21.80;56.10;;;;;;4893285;28;88962;-63
2022/05/24 13:34:55;;;;;;;3.30;0.82;;;21.80;55.10;;;;;;4894970;28;87502;-63
2022/05/24 13:37:26;;;;;;;1.83;0.73;;;21.80;54.80;;;;;;4894403;28;87692;-63
2022/05/24 13:39:53;;;;;;;4.28;1.00;;;21.80;54.60;;;;;;4893329;28;87988;-63
2022/05/24 13:42:26;;;;;;;6.45;1.20;;;21.80;54.50;;;;;;4893474;28;87993;-63
2022/05/24 13:45:14;;;;;;;5.65;1.40;;;21.80;54.50;;;;;;4892901;28;90650;-63
2022/05/24 13:47:56;;;;;;;17.63;3.83;;;21.80;54.90;;;;;;4893781;28;88782;-63
2022/05/24 13:50:41;;;;;;;38.90;4.95;;;21.80;54.10;;;;;;4878117;28;88396;-63
2022/05/24 13:53:46;;;;;;;15.73;3.13;;;21.80;54.10;;;;;;4893871;28;87880;-63